createdAt,value
2023-03-16T00:00:49.833Z,101006.81
2023-03-16T00:03:20.937Z,101010.22
2023-03-16T00:05:52.355Z,101007.72
2023-03-16T00:08:20.584Z,101006.94
2023-03-16T00:10:48.529Z,101008.59
2023-03-16T00:13:16.668Z,101007.72
2023-03-16T00:15:57.799Z,101007.72
2023-03-16T00:18:27.878Z,101010.47
2023-03-16T00:20:58.246Z,101007.78
2023-03-16T00:23:28.829Z,101016.25
2023-03-16T00:25:57.541Z,101023.13
2023-03-16T00:28:26.381Z,101022.19
2023-03-16T00:30:59.440Z,101012.91
2023-03-16T00:33:27.645Z,101022.34
2023-03-16T00:36:02.704Z,101024.91
2023-03-16T00:38:35.109Z,101028.38
2023-03-16T00:41:04.397Z,101034.31
2023-03-16T00:43:41.343Z,101032.59
2023-03-16T00:46:09.929Z,101026.47
2023-03-16T00:48:39.716Z,101026.41
2023-03-16T00:51:13.321Z,101028.22
2023-03-16T00:53:43.568Z,101029.91
2023-03-16T00:56:12.539Z,101026.50
2023-03-16T00:58:43.835Z,101032.47
2023-03-16T01:01:19.207Z,101028.28
2023-03-16T01:03:46.800Z,101026.56
2023-03-16T01:06:17.259Z,101024.84
2023-03-16T01:08:45.624Z,101022.19
2023-03-16T01:11:16.701Z,101017.97
2023-03-16T01:13:47.584Z,101021.47
2023-03-16T01:16:23.369Z,101009.47
2023-03-16T01:18:52.475Z,101016.31
2023-03-16T01:21:20.240Z,101005.16
2023-03-16T01:23:48.326Z,101007.81
2023-03-16T01:26:18.104Z,101014.69
2023-03-16T01:28:48.283Z,101010.38
2023-03-16T01:31:17.316Z,101015.53
2023-03-16T01:33:45.935Z,101007.78
2023-03-16T01:36:19.533Z,100999.19
2023-03-16T01:38:54.672Z,100996.69
2023-03-16T01:41:24.585Z,101003.66
2023-03-16T01:43:58.743Z,100999.22
2023-03-16T01:46:31.963Z,100996.06
2023-03-16T01:49:33.566Z,100994.31
2023-03-16T01:52:15.044Z,100992.56
2023-03-16T01:54:50.604Z,100993.25
2023-03-16T01:57:24.342Z,100997.56
2023-03-16T02:00:19.175Z,101000.22
2023-03-16T02:03:18.989Z,100994.28
2023-03-16T02:06:05.288Z,100997.78
2023-03-16T02:08:38.637Z,100995.22
2023-03-16T02:11:09.307Z,100995.25
2023-03-16T02:14:03.461Z,100991.13
2023-03-16T02:16:31.467Z,100996.41
2023-03-16T02:18:59.344Z,101001.59
2023-03-16T02:21:40.402Z,100995.53
2023-03-16T02:24:08.655Z,100999.06
2023-03-16T02:27:08.689Z,100999.84
2023-03-16T02:30:02.986Z,100992.91
2023-03-16T02:32:40.186Z,100994.72
2023-03-16T02:35:10.043Z,100990.41
2023-03-16T02:37:37.792Z,100999.06
2023-03-16T02:40:22.817Z,100999.97
2023-03-16T02:43:05.110Z,101000.16
2023-03-16T02:45:58.714Z,100999.38
2023-03-16T02:48:37.300Z,101001.91
2023-03-16T02:51:06.254Z,101009.66
2023-03-16T02:53:33.637Z,101001.94
2023-03-16T02:56:05.310Z,101005.28
2023-03-16T02:58:36.645Z,101011.41
2023-03-16T03:01:10.439Z,101012.22
2023-03-16T03:03:38.851Z,101006.22
2023-03-16T03:06:06.904Z,101012.22
2023-03-16T03:08:37.189Z,101011.34
2023-03-16T03:11:05.276Z,101010.50
2023-03-16T03:13:34.728Z,101023.41
2023-03-16T03:16:02.736Z,101018.19
2023-03-16T03:18:31.400Z,101014.72
2023-03-16T03:20:59.669Z,101008.72
2023-03-16T03:23:26.964Z,101019.00
2023-03-16T03:25:58.623Z,101020.72
2023-03-16T03:28:27.946Z,101021.66
2023-03-16T03:30:55.884Z,101025.00
2023-03-16T03:33:23.249Z,101021.63
2023-03-16T03:35:55.831Z,101032.72
2023-03-16T03:38:24.718Z,101031.09
2023-03-16T03:40:53.861Z,101034.47
2023-03-16T03:43:21.888Z,101032.69
2023-03-16T03:45:55.195Z,101039.59
2023-03-16T03:48:22.538Z,101038.75
2023-03-16T03:50:50.505Z,101041.38
2023-03-16T03:53:32.508Z,101049.97
2023-03-16T03:56:20.553Z,101051.69
2023-03-16T03:58:47.871Z,101056.75
2023-03-16T04:01:22.466Z,101058.41
2023-03-16T04:03:49.987Z,101067.81
2023-03-16T04:06:17.561Z,101065.22
2023-03-16T04:08:45.134Z,101064.34
2023-03-16T04:11:15.925Z,101068.63
2023-03-16T04:13:43.396Z,101066.22
2023-03-16T04:16:11.450Z,101073.91
2023-03-16T04:18:43.365Z,101075.59
2023-03-16T04:21:16.033Z,101073.81
2023-03-16T04:23:45.377Z,101079.91
2023-03-16T04:26:12.956Z,101084.25
2023-03-16T04:28:43.446Z,101086.84
2023-03-16T04:31:14.473Z,101084.28
2023-03-16T04:33:45.903Z,101080.81
2023-03-16T04:36:13.976Z,101085.09
2023-03-16T04:38:42.118Z,101080.75
2023-03-16T04:41:11.566Z,101080.81
2023-03-16T04:43:45.782Z,101091.94
2023-03-16T04:46:26.933Z,101095.41
2023-03-16T04:48:58.608Z,101097.16
2023-03-16T04:51:29.258Z,101093.72
2023-03-16T04:54:05.545Z,101095.50
2023-03-16T04:56:41.633Z,101095.53
2023-03-16T04:59:27.193Z,101098.09
2023-03-16T05:02:12.598Z,101098.06
2023-03-16T05:04:40.150Z,101099.88
2023-03-16T05:07:11.523Z,101104.25
2023-03-16T05:09:42.501Z,101108.50
2023-03-16T05:12:11.224Z,101116.22
2023-03-16T05:14:39.900Z,101119.63
2023-03-16T05:17:23.946Z,101119.59
2023-03-16T05:19:51.864Z,101113.63
2023-03-16T05:22:20.937Z,101123.94
2023-03-16T05:25:05.805Z,101125.66
2023-03-16T05:27:34.311Z,101123.97
2023-03-16T05:30:04.576Z,101124.78
2023-03-16T05:32:33.159Z,101128.19
2023-03-16T05:35:03.267Z,101134.16
2023-03-16T05:37:31.682Z,101140.97
2023-03-16T05:39:59.260Z,101142.66
2023-03-16T05:42:29.514Z,101147.81
2023-03-16T05:45:01.036Z,101147.84
2023-03-16T05:47:36.645Z,101151.31
2023-03-16T05:50:09.282Z,101150.34
2023-03-16T05:52:41.340Z,101152.84
2023-03-16T05:55:17.480Z,101157.16
2023-03-16T05:57:50.286Z,101162.19
2023-03-16T06:00:19.089Z,101163.91
2023-03-16T06:02:53.585Z,101163.00
2023-03-16T06:05:23.117Z,101166.25
2023-03-16T06:07:52.166Z,101171.19
2023-03-16T06:10:19.876Z,101173.34
2023-03-16T06:12:47.128Z,101182.28
2023-03-16T06:15:14.978Z,101178.38
2023-03-16T06:17:42.397Z,101177.97
2023-03-16T06:20:11.469Z,101181.03
2023-03-16T06:22:41.233Z,101188.72
2023-03-16T06:25:10.581Z,101185.47
2023-03-16T06:27:38.627Z,101193.56
2023-03-16T06:30:12.172Z,101193.22
2023-03-16T06:32:42.186Z,101198.03
2023-03-16T06:35:09.925Z,101199.03
2023-03-16T06:37:40.532Z,101197.94
2023-03-16T06:40:28.208Z,101211.34
2023-03-16T06:42:55.989Z,101218.91
2023-03-16T06:45:25.712Z,101227.22
2023-03-16T06:47:56.313Z,101229.56
2023-03-16T06:50:24.698Z,101234.66
2023-03-16T06:52:52.028Z,101237.69
2023-03-16T06:55:20.522Z,101239.75
2023-03-16T06:57:49.506Z,101248.09
2023-03-16T07:00:19.600Z,101251.34
2023-03-16T07:02:47.082Z,101252.38
2023-03-16T07:05:16.196Z,101256.50
2023-03-16T07:07:43.964Z,101255.22
2023-03-16T07:10:14.035Z,101260.25
2023-03-16T07:12:42.426Z,101255.72
2023-03-16T07:15:11.877Z,101256.56
2023-03-16T07:17:39.927Z,101268.75
2023-03-16T07:20:10.829Z,101263.47
2023-03-16T07:22:40.243Z,101265.66
2023-03-16T07:25:11.388Z,101279.25
2023-03-16T07:27:43.977Z,101277.81
2023-03-16T07:30:14.348Z,101282.81
2023-03-16T07:32:44.398Z,101285.81
2023-03-16T07:35:11.878Z,101292.97
2023-03-16T07:37:39.517Z,101294.69
2023-03-16T07:40:09.395Z,101297.66
2023-03-16T07:42:37.806Z,101294.41
2023-03-16T07:45:28.897Z,101299.75
2023-03-16T07:47:56.829Z,101296.41
2023-03-16T07:50:44.992Z,101301.47
2023-03-16T07:53:12.371Z,101310.88
2023-03-16T07:55:42.836Z,101316.97
2023-03-16T07:58:10.875Z,101318.59
2023-03-16T08:00:40.744Z,101316.69
2023-03-16T08:03:08.397Z,101321.75
2023-03-16T08:05:36.238Z,101322.31
2023-03-16T08:08:09.867Z,101324.66
2023-03-16T08:10:38.628Z,101323.69
2023-03-16T08:13:15.338Z,101317.44
2023-03-16T08:15:58.539Z,101319.91
2023-03-16T08:18:35.207Z,101320.50
2023-03-16T08:21:03.173Z,101321.44
2023-03-16T08:23:33.765Z,101330.66
2023-03-16T08:26:01.280Z,101322.72
2023-03-16T08:28:28.845Z,101327.53
2023-03-16T08:30:58.598Z,101328.69
2023-03-16T08:33:38.775Z,101328.44
2023-03-16T08:36:08.635Z,101328.06
2023-03-16T08:38:36.312Z,101332.16
2023-03-16T08:41:08.309Z,101323.13
2023-03-16T08:43:37.565Z,101334.78
2023-03-16T08:46:05.548Z,101326.59
2023-03-16T08:48:44.983Z,101339.84
2023-03-16T08:51:12.532Z,101335.47
2023-03-16T08:53:39.745Z,101335.34
2023-03-16T08:56:08.776Z,101349.06
2023-03-16T08:58:36.470Z,101340.00
2023-03-16T09:01:05.700Z,101351.88
2023-03-16T09:03:33.551Z,101346.03
2023-03-16T09:06:05.302Z,101354.38
2023-03-16T09:08:33.020Z,101353.84
2023-03-16T09:11:01.633Z,101358.13
2023-03-16T09:13:28.895Z,101360.63
2023-03-16T09:15:56.983Z,101362.84
2023-03-16T09:18:26.276Z,101360.34
2023-03-16T09:20:59.913Z,101369.47
2023-03-16T09:23:27.783Z,101365.50
2023-03-16T09:26:02.033Z,101366.19
2023-03-16T09:28:30.034Z,101372.47
2023-03-16T09:31:01.572Z,101369.41
2023-03-16T09:33:30.106Z,101371.94
2023-03-16T09:35:58.715Z,101370.91
2023-03-16T09:38:28.979Z,101376.63
2023-03-16T09:41:07.417Z,101377.84
2023-03-16T09:43:46.152Z,101377.44
2023-03-16T09:46:16.627Z,101380.56
2023-03-16T09:48:45.057Z,101380.72
2023-03-16T09:51:40.306Z,101370.78
2023-03-16T09:54:22.840Z,101371.97
2023-03-16T09:56:57.725Z,101382.25
2023-03-16T09:59:25.263Z,101374.78
2023-03-16T10:02:02.536Z,101387.09
2023-03-16T10:04:35.887Z,101379.47
2023-03-16T10:07:20.154Z,101379.63
2023-03-16T10:09:55.024Z,101378.97
2023-03-16T10:12:25.137Z,101389.03
2023-03-16T10:14:57.558Z,101392.47
2023-03-16T10:17:45.712Z,101387.19
2023-03-16T10:20:21.170Z,101383.56
2023-03-16T10:22:50.887Z,101389.03
2023-03-16T10:25:27.687Z,101393.22
2023-03-16T10:27:57.423Z,101393.66
2023-03-16T10:30:36.268Z,101385.00
2023-03-16T10:33:05.669Z,101380.38
2023-03-16T10:35:33.762Z,101383.22
2023-03-16T10:38:01.059Z,101377.31
2023-03-16T10:40:31.420Z,101385.25
2023-03-16T10:43:05.283Z,101392.28
2023-03-16T10:45:35.018Z,101385.09
2023-03-16T10:48:12.812Z,101384.66
2023-03-16T10:50:41.914Z,101388.19
2023-03-16T10:53:16.668Z,101388.56
2023-03-16T10:55:45.074Z,101391.28
2023-03-16T10:58:22.698Z,101386.56
2023-03-16T11:00:50.249Z,101389.03
2023-03-16T11:03:27.601Z,101383.66
2023-03-16T11:06:02.361Z,101380.97
2023-03-16T11:08:34.145Z,101377.16
2023-03-16T11:11:08.470Z,101386.34
2023-03-16T11:13:37.822Z,101370.25
2023-03-16T11:16:11.366Z,101363.16
2023-03-16T11:18:42.719Z,101371.94
2023-03-16T11:21:17.316Z,101364.00
2023-03-16T11:23:48.491Z,101360.78
2023-03-16T11:26:21.327Z,101356.81
2023-03-16T11:28:54.608Z,101357.34
2023-03-16T11:31:42.837Z,101355.00
2023-03-16T11:34:14.786Z,101353.78
2023-03-16T11:36:45.284Z,101356.09
2023-03-16T11:39:31.816Z,101352.72
2023-03-16T11:42:04.224Z,101350.72
2023-03-16T11:44:44.755Z,101342.69
2023-03-16T11:47:15.009Z,101340.00
2023-03-16T11:49:45.855Z,101345.56
2023-03-16T11:52:39.900Z,101341.47
2023-03-16T11:55:30.473Z,101330.91
2023-03-16T11:58:00.939Z,101326.56
2023-03-16T12:00:48.651Z,101324.75
2023-03-16T12:03:34.966Z,101334.75
2023-03-16T12:06:22.137Z,101331.94
2023-03-16T12:08:54.604Z,101337.50
2023-03-16T12:11:32.031Z,101334.91
2023-03-16T12:14:05.377Z,101322.38
2023-03-16T12:16:49.191Z,101321.75
2023-03-16T12:19:26.975Z,101324.28
2023-03-16T12:22:02.749Z,101314.16
2023-03-16T12:24:34.727Z,101311.56
2023-03-16T12:27:02.690Z,101297.19
2023-03-16T12:29:37.653Z,101305.47
2023-03-16T12:32:08.494Z,101300.81
2023-03-16T12:34:51.143Z,101302.31
2023-03-16T12:37:22.709Z,101299.69
2023-03-16T12:40:09.369Z,101293.63
2023-03-16T12:42:48.179Z,101291.88
2023-03-16T12:45:18.211Z,101295.69
2023-03-16T12:47:45.493Z,101289.94
2023-03-16T12:50:15.404Z,101286.13
2023-03-16T12:52:44.555Z,101288.78
2023-03-16T12:55:14.901Z,101286.97
2023-03-16T12:57:43.123Z,101288.50
2023-03-16T13:00:11.069Z,101289.59
2023-03-16T13:02:43.043Z,101285.59
2023-03-16T13:05:28.827Z,101284.19
2023-03-16T13:08:08.959Z,101279.16
2023-03-16T13:10:37.700Z,101280.31
2023-03-16T13:13:11.506Z,101276.03
2023-03-16T13:15:39.812Z,101275.59
2023-03-16T13:18:27.207Z,101273.72
2023-03-16T13:20:59.038Z,101278.59
2023-03-16T13:23:46.579Z,101271.09
2023-03-16T13:26:16.212Z,101266.50
2023-03-16T13:28:51.615Z,101268.66
2023-03-16T13:31:24.842Z,101268.81
2023-03-16T13:33:55.141Z,101258.50
2023-03-16T13:36:23.346Z,101264.16
2023-03-16T13:39:05.258Z,101259.59
2023-03-16T13:41:32.731Z,101260.69
2023-03-16T13:44:00.665Z,101250.88
2023-03-16T13:46:31.090Z,101251.44
2023-03-16T13:49:01.810Z,101255.56
2023-03-16T13:51:31.308Z,101254.00
2023-03-16T13:53:59.711Z,101249.25
2023-03-16T13:56:29.436Z,101247.44
2023-03-16T13:58:58.642Z,101245.56
2023-03-16T14:01:28.080Z,101241.41
2023-03-16T14:03:58.454Z,101240.28
2023-03-16T14:06:27.600Z,101231.50
2023-03-16T14:09:01.540Z,101235.59
2023-03-16T14:11:29.737Z,101243.03
2023-03-16T14:14:01.172Z,101242.31
2023-03-16T14:16:29.890Z,101237.50
2023-03-16T14:19:08.754Z,101233.13
2023-03-16T14:21:36.063Z,101230.34
2023-03-16T14:24:08.247Z,101230.56
2023-03-16T14:26:41.064Z,101234.09
2023-03-16T14:29:16.576Z,101228.03
2023-03-16T14:31:44.879Z,101234.31
2023-03-16T14:34:21.561Z,101231.81
2023-03-16T14:36:49.101Z,101227.75
2023-03-16T14:39:19.450Z,101228.41
2023-03-16T14:41:50.786Z,101225.25
2023-03-16T14:44:21.153Z,101229.25
2023-03-16T14:46:48.999Z,101230.34
2023-03-16T14:49:20.469Z,101226.63
2023-03-16T14:51:49.552Z,101228.00
2023-03-16T14:54:18.252Z,101229.03
2023-03-16T14:56:50.203Z,101236.97
2023-03-16T14:59:18.415Z,101236.91
2023-03-16T15:01:46.250Z,101236.50
2023-03-16T15:04:15.279Z,101234.63
2023-03-16T15:06:43.088Z,101238.28
2023-03-16T15:09:28.395Z,101244.00
2023-03-16T15:11:57.816Z,101241.66
2023-03-16T15:14:44.277Z,101237.22
2023-03-16T15:17:12.564Z,101238.34
2023-03-16T15:19:40.086Z,101234.19
2023-03-16T15:22:11.379Z,101240.00
2023-03-16T15:24:39.252Z,101238.09
2023-03-16T15:27:18.295Z,101245.00
2023-03-16T15:29:45.988Z,101240.75
2023-03-16T15:32:15.731Z,101237.06
2023-03-16T15:34:46.014Z,101239.91
2023-03-16T15:37:15.505Z,101236.53
2023-03-16T15:39:44.107Z,101235.16
2023-03-16T15:42:13.308Z,101231.19
2023-03-16T15:44:41.027Z,101233.06
2023-03-16T15:47:09.223Z,101232.47
2023-03-16T15:49:47.216Z,101232.03
2023-03-16T15:52:26.814Z,101233.16
2023-03-16T15:54:53.986Z,101242.34
2023-03-16T15:57:21.608Z,101232.75
2023-03-16T15:59:49.078Z,101245.75
2023-03-16T16:02:28.102Z,101236.84
2023-03-16T16:04:56.344Z,101251.66
2023-03-16T16:07:23.591Z,101246.44
2023-03-16T16:09:51.224Z,101252.75
2023-03-16T16:12:20.484Z,101249.75
2023-03-16T16:14:47.823Z,101253.50
2023-03-16T16:17:36.528Z,101253.66
2023-03-16T16:20:22.889Z,101253.50
2023-03-16T16:22:52.285Z,101254.38
2023-03-16T16:25:23.953Z,101260.78
2023-03-16T16:27:51.738Z,101267.22
2023-03-16T16:30:21.484Z,101265.31
2023-03-16T16:32:49.366Z,101262.00
2023-03-16T16:35:17.963Z,101267.50
2023-03-16T16:37:45.773Z,101260.94
2023-03-16T16:40:36.505Z,101261.09
2023-03-16T16:43:05.338Z,101253.00
2023-03-16T16:45:32.777Z,101266.56
2023-03-16T16:47:59.992Z,101266.69
2023-03-16T16:50:27.769Z,101279.06
2023-03-16T16:52:55.373Z,101272.75
2023-03-16T16:55:23.857Z,101277.63
2023-03-16T16:57:53.928Z,101280.03
2023-03-16T17:00:23.185Z,101283.22
2023-03-16T17:02:53.957Z,101281.53
2023-03-16T17:05:22.901Z,101297.53
2023-03-16T17:07:51.349Z,101297.44
2023-03-16T17:10:21.354Z,101300.31
2023-03-16T17:12:54.773Z,101301.78
2023-03-16T17:15:29.824Z,101301.69
2023-03-16T17:18:17.633Z,101305.59
2023-03-16T17:20:45.804Z,101305.97
2023-03-16T17:23:19.184Z,101312.78
2023-03-16T17:25:46.890Z,101315.69
2023-03-16T17:28:16.813Z,101320.53
2023-03-16T17:30:45.783Z,101311.22
2023-03-16T17:33:13.989Z,101325.34
2023-03-16T17:35:41.720Z,101326.09
2023-03-16T17:38:27.318Z,101322.41
2023-03-16T17:40:55.363Z,101330.53
2023-03-16T17:43:23.287Z,101332.41
2023-03-16T17:45:51.775Z,101328.09
2023-03-16T17:48:20.431Z,101333.44
2023-03-16T17:50:48.754Z,101327.03
2023-03-16T17:53:17.019Z,101332.66
2023-03-16T17:55:46.377Z,101340.84
2023-03-16T17:58:16.933Z,101342.72
2023-03-16T18:00:47.049Z,101349.25
2023-03-16T18:03:17.364Z,101352.16
2023-03-16T18:05:45.086Z,101354.91
2023-03-16T18:08:12.376Z,101362.00
2023-03-16T18:10:40.967Z,101356.53
2023-03-16T18:13:13.738Z,101355.19
2023-03-16T18:15:41.031Z,101371.25
2023-03-16T18:18:13.959Z,101370.06
2023-03-16T18:20:41.233Z,101380.72
2023-03-16T18:23:19.149Z,101382.69
2023-03-16T18:25:48.693Z,101386.41
2023-03-16T18:28:16.762Z,101393.31
2023-03-16T18:30:46.373Z,101394.59
2023-03-16T18:33:25.902Z,101392.13
2023-03-16T18:35:54.955Z,101398.75
2023-03-16T18:38:25.701Z,101403.56
2023-03-16T18:40:53.172Z,101409.59
2023-03-16T18:43:20.604Z,101420.91
2023-03-16T18:45:48.813Z,101415.22
2023-03-16T18:48:30.768Z,101411.09
2023-03-16T18:50:58.522Z,101420.03
2023-03-16T18:53:28.319Z,101429.25
2023-03-16T18:55:57.522Z,101422.44
2023-03-16T18:58:25.605Z,101422.72
2023-03-16T19:00:57.539Z,101426.47
2023-03-16T19:03:29.241Z,101432.31
2023-03-16T19:05:57.796Z,101432.44
2023-03-16T19:08:27.057Z,101430.03
2023-03-16T19:10:56.672Z,101430.06
2023-03-16T19:13:24.784Z,101438.75
2023-03-16T19:15:53.201Z,101445.00
2023-03-16T19:18:21.602Z,101438.00
2023-03-16T19:20:50.379Z,101442.25
2023-03-16T19:23:30.945Z,101443.81
2023-03-16T19:25:58.785Z,101443.19
2023-03-16T19:28:34.059Z,101445.53
2023-03-16T19:31:02.959Z,101449.66
2023-03-16T19:33:30.499Z,101454.59
2023-03-16T19:35:58.483Z,101458.97
2023-03-16T19:38:26.536Z,101454.75
2023-03-16T19:40:59.561Z,101458.16
2023-03-16T19:43:28.587Z,101458.47
2023-03-16T19:45:59.964Z,101456.94
2023-03-16T19:48:32.832Z,101463.94
2023-03-16T19:51:01.102Z,101470.06
2023-03-16T19:53:29.519Z,101467.81
2023-03-16T19:55:57.558Z,101469.75
2023-03-16T19:58:25.664Z,101466.31
2023-03-16T20:00:53.625Z,101473.56
2023-03-16T20:03:21.946Z,101474.63
2023-03-16T20:05:49.843Z,101474.72
2023-03-16T20:08:20.604Z,101481.59
2023-03-16T20:10:48.648Z,101489.50
2023-03-16T20:13:16.217Z,101491.00
2023-03-16T20:15:43.740Z,101496.28
2023-03-16T20:18:13.695Z,101488.69
2023-03-16T20:20:42.432Z,101501.84
2023-03-16T20:23:17.654Z,101496.56
2023-03-16T20:25:46.239Z,101505.06
2023-03-16T20:28:17.955Z,101505.94
2023-03-16T20:30:45.747Z,101512.34
2023-03-16T20:33:23.239Z,101506.50
2023-03-16T20:35:53.593Z,101515.81
2023-03-16T20:38:22.224Z,101515.72
2023-03-16T20:40:52.625Z,101515.63
2023-03-16T20:43:27.845Z,101517.41
2023-03-16T20:45:57.893Z,101515.69
2023-03-16T20:48:25.614Z,101514.09
2023-03-16T20:50:54.741Z,101520.84
2023-03-16T20:53:22.787Z,101522.69
2023-03-16T20:55:50.805Z,101519.22
2023-03-16T20:58:18.296Z,101524.44
2023-03-16T21:00:46.812Z,101532.41
2023-03-16T21:03:16.902Z,101521.47
2023-03-16T21:05:44.980Z,101529.03
2023-03-16T21:08:12.776Z,101528.09
2023-03-16T21:10:40.981Z,101535.97
2023-03-16T21:13:15.117Z,101536.09
2023-03-16T21:15:42.585Z,101543.28
2023-03-16T21:18:13.679Z,101547.56
2023-03-16T21:20:42.176Z,101546.72
2023-03-16T21:23:15.237Z,101537.28
2023-03-16T21:25:49.045Z,101540.84
2023-03-16T21:28:18.647Z,101527.63
2023-03-16T21:30:47.946Z,101532.00
2023-03-16T21:33:32.956Z,101533.72
2023-03-16T21:36:01.713Z,101530.28
2023-03-16T21:38:30.280Z,101532.22
2023-03-16T21:40:58.809Z,101529.75
2023-03-16T21:43:26.983Z,101532.28
2023-03-16T21:45:55.146Z,101537.47
2023-03-16T21:48:24.247Z,101532.31
2023-03-16T21:50:52.468Z,101539.31
2023-03-16T21:53:22.207Z,101534.34
2023-03-16T21:55:50.444Z,101542.19
2023-03-16T21:58:18.539Z,101541.41
2023-03-16T22:00:46.873Z,101544.66
2023-03-16T22:03:32.920Z,101542.84
2023-03-16T22:06:05.292Z,101546.28
2023-03-16T22:08:34.310Z,101546.38
2023-03-16T22:11:02.059Z,101551.69
2023-03-16T22:13:29.555Z,101553.38
2023-03-16T22:15:57.626Z,101556.88
2023-03-16T22:18:31.102Z,101561.06
2023-03-16T22:20:59.225Z,101567.16
2023-03-16T22:23:29.680Z,101572.34
2023-03-16T22:25:57.081Z,101563.66
2023-03-16T22:28:25.076Z,101562.84
2023-03-16T22:30:52.472Z,101566.34
2023-03-16T22:33:23.637Z,101562.84
2023-03-16T22:35:51.256Z,101556.84
2023-03-16T22:38:18.611Z,101555.22
2023-03-16T22:40:45.933Z,101558.75
2023-03-16T22:43:15.953Z,101562.19
2023-03-16T22:45:43.580Z,101551.84
2023-03-16T22:48:22.228Z,101557.91
2023-03-16T22:50:50.250Z,101565.59
2023-03-16T22:53:20.560Z,101563.78
2023-03-16T22:55:48.331Z,101564.59
2023-03-16T22:58:25.297Z,101553.44
2023-03-16T23:00:52.791Z,101563.66
2023-03-16T23:03:21.248Z,101557.69
2023-03-16T23:05:49.114Z,101556.75
2023-03-16T23:08:18.656Z,101550.72
2023-03-16T23:10:46.253Z,101562.00
2023-03-16T23:13:15.953Z,101563.69
2023-03-16T23:15:45.753Z,101553.31
2023-03-16T23:18:20.322Z,101556.78
2023-03-16T23:20:47.996Z,101555.22
2023-03-16T23:23:16.080Z,101558.72
2023-03-16T23:25:43.655Z,101561.28
2023-03-16T23:28:14.654Z,101560.47
2023-03-16T23:30:41.985Z,101567.34
2023-03-16T23:33:11.702Z,101558.72
2023-03-16T23:35:39.807Z,101551.88
2023-03-16T23:38:07.242Z,101563.13
2023-03-16T23:40:36.247Z,101563.97
2023-03-16T23:43:03.438Z,101560.63
2023-03-16T23:45:30.670Z,101562.44
2023-03-16T23:47:59.737Z,101564.19
2023-03-16T23:50:29.402Z,101557.28
2023-03-16T23:52:56.882Z,101557.25
2023-03-16T23:55:24.893Z,101560.66
2023-03-16T23:57:52.198Z,101557.25
